Portada
METAR-TAF:

METAR-TAF

Aeroports :

Norwich, Anglaterra

latitud: 52-38N, longitud: 001-18E, altitud: 14 m

Observació

L'informe es va fer fa 28 minuts, a les 23:50 UTC
Vent 16 kt del Oest/Sud-Oest, variant entre Sud/Sud-Oest i Oest
Temperatura 18°C
Humitat 77%
Pressió 1006 hPa
Visibilitat 10 km o més

METAR: EGSH 042350Z AUTO 24016KT 210V280 9999 OVC019/// 18/14 Q1006

Hora: 01:18 (00:18 UTC)

Pronòstic

L'informe es va fer fa 4 hores i 19 minuts, a les 19:59 UTC
Pronòstic vàlid del 04 a les 21 UTC al 05 a les 06 UTC
Vent 12 kt del Sud-Oest
Visibilitat 10 km o més
Núvols disperses a una alçada de 2000 ft
Temporalment
l' 04 a les 21 UTC al 05 a les 06 UTC
Vent 18 kt del Oest/Sud-Oest amb ràfegues de 28 kt
Visibilitat: 8000 m
Cel ennuvolat a una alçada de 900 ft
pluja
Temporalment
l' 05 a les 03 UTC al 05 a les 05 UTC
Visibilitat: 4000 m
pluja, plugim

TAF: EGSH 041959Z 0421/0506 23012KT 9999 SCT020 TEMPO 0421/0506 24018G28KT 8000 -RA BKN009 TEMPO 0503/0505 4000 RADZ

Observacions i pronòstics meteorològics de més de 4000 aeroports (METAR i TAF).

Les estacions disponibles són els punts grocs i vermells al mapa.

Posi el ratolí al punt desitjat per veure el nom de l'estació.

Feu clic per veure les observacions i els pronòstics meteorològics.

Per canviar el mapa: feu clic els botons verds amb una creu de color negre per apropar; al botó verd amb un guió per allunyar la imatge; o en les fletxes verdes per a mapes adjacents.


METAR-TAF: